sensor_id;sensor_type;location;lat;lon;timestamp;pressure;altitude;pressure_sealevel;temperature;humidity
27334;BME280;14817;57.104;-2.094;2023-03-30T00:00:50;98351.59;;;7.62;100.00
27334;BME280;14817;57.104;-2.094;2023-03-30T00:03:17;98346.44;;;7.61;100.00
27334;BME280;14817;57.104;-2.094;2023-03-30T00:05:45;98353.25;;;7.63;100.00
27334;BME280;14817;57.104;-2.094;2023-03-30T00:08:12;98358.56;;;7.63;100.00
27334;BME280;14817;57.104;-2.094;2023-03-30T00:10:40;98357.34;;;7.66;100.00
27334;BME280;14817;57.104;-2.094;2023-03-30T00:13:11;98356.47;;;7.59;100.00
27334;BME280;14817;57.104;-2.094;2023-03-30T00:15:38;98366.72;;;7.62;100.00
27334;BME280;14817;57.104;-2.094;2023-03-30T00:18:06;98374.19;;;7.66;100.00
27334;BME280;14817;57.104;-2.094;2023-03-30T00:20:35;98375.50;;;7.55;100.00
27334;BME280;14817;57.104;-2.094;2023-03-30T00:23:03;98380.69;;;7.64;100.00
27334;BME280;14817;57.104;-2.094;2023-03-30T00:25:30;98380.69;;;7.64;100.00
27334;BME280;14817;57.104;-2.094;2023-03-30T00:27:56;98364.28;;;7.60;100.00
27334;BME280;14817;57.104;-2.094;2023-03-30T00:30:24;98363.06;;;7.63;100.00
27334;BME280;14817;57.104;-2.094;2023-03-30T00:32:52;98363.47;;;7.60;100.00
27334;BME280;14817;57.104;-2.094;2023-03-30T00:35:19;98375.59;;;7.47;100.00
27334;BME280;14817;57.104;-2.094;2023-03-30T00:37:46;98373.50;;;7.28;100.00
27334;BME280;14817;57.104;-2.094;2023-03-30T00:40:19;98359.16;;;7.29;100.00
27334;BME280;14817;57.104;-2.094;2023-03-30T00:42:47;98360.72;;;7.38;100.00
27334;BME280;14817;57.104;-2.094;2023-03-30T00:50:26;98342.94;;;7.24;100.00
27334;BME280;14817;57.104;-2.094;2023-03-30T00:52:56;98344.66;;;7.16;100.00
27334;BME280;14817;57.104;-2.094;2023-03-30T00:55:25;98341.28;;;7.08;100.00
27334;BME280;14817;57.104;-2.094;2023-03-30T00:57:53;98355.44;;;7.08;100.00
27334;BME280;14817;57.104;-2.094;2023-03-30T01:00:21;98348.81;;;7.04;100.00
27334;BME280;14817;57.104;-2.094;2023-03-30T01:02:56;98359.09;;;7.07;100.00
27334;BME280;14817;57.104;-2.094;2023-03-30T01:05:25;98361.19;;;7.12;100.00
27334;BME280;14817;57.104;-2.094;2023-03-30T01:07:54;98356.03;;;7.10;100.00
27334;BME280;14817;57.104;-2.094;2023-03-30T01:10:23;98362.00;;;7.12;100.00
27334;BME280;14817;57.104;-2.094;2023-03-30T01:12:51;98364.03;;;7.10;100.00
27334;BME280;14817;57.104;-2.094;2023-03-30T01:15:18;98365.06;;;7.09;100.00
27334;BME280;14817;57.104;-2.094;2023-03-30T01:28:46;98351.88;;;6.63;100.00
27334;BME280;14817;57.104;-2.094;2023-03-30T01:31:40;98358.47;;;6.67;100.00
27334;BME280;14817;57.104;-2.094;2023-03-30T01:34:33;98359.09;;;6.54;100.00
27334;BME280;14817;57.104;-2.094;2023-03-30T01:39:42;98354.72;;;6.62;100.00
27334;BME280;14817;57.104;-2.094;2023-03-30T01:42:37;98348.88;;;6.66;100.00
27334;BME280;14817;57.104;-2.094;2023-03-30T01:47:39;98342.19;;;6.70;100.00
27334;BME280;14817;57.104;-2.094;2023-03-30T01:50:19;98342.81;;;6.72;100.00
27334;BME280;14817;57.104;-2.094;2023-03-30T01:52:57;98342.81;;;6.72;100.00
27334;BME280;14817;57.104;-2.094;2023-03-30T01:55:33;98345.50;;;6.72;100.00
27334;BME280;14817;57.104;-2.094;2023-03-30T02:00:34;98343.81;;;6.71;100.00
27334;BME280;14817;57.104;-2.094;2023-03-30T02:03:17;98343.47;;;6.74;100.00
27334;BME280;14817;57.104;-2.094;2023-03-30T02:05:48;98343.09;;;6.78;100.00
27334;BME280;14817;57.104;-2.094;2023-03-30T02:08:20;98345.41;;;6.81;100.00
27334;BME280;14817;57.104;-2.094;2023-03-30T02:10:50;98342.19;;;6.85;100.00
27334;BME280;14817;57.104;-2.094;2023-03-30T02:13:20;98349.72;;;6.82;100.00
27334;BME280;14817;57.104;-2.094;2023-03-30T02:16:02;98356.50;;;6.84;100.00
27334;BME280;14817;57.104;-2.094;2023-03-30T02:18:30;98356.78;;;6.89;100.00
27334;BME280;14817;57.104;-2.094;2023-03-30T02:20:57;98348.06;;;6.81;100.00
27334;BME280;14817;57.104;-2.094;2023-03-30T02:23:29;98363.38;;;6.79;100.00
27334;BME280;14817;57.104;-2.094;2023-03-30T02:25:57;98353.72;;;6.78;100.00
27334;BME280;14817;57.104;-2.094;2023-03-30T02:28:24;98364.56;;;6.76;100.00
27334;BME280;14817;57.104;-2.094;2023-03-30T02:30:53;98361.44;;;6.72;100.00
27334;BME280;14817;57.104;-2.094;2023-03-30T02:36:22;98360.81;;;6.85;100.00
27334;BME280;14817;57.104;-2.094;2023-03-30T02:42:11;98354.72;;;6.62;100.00
27334;BME280;14817;57.104;-2.094;2023-03-30T02:54:37;98362.47;;;6.86;100.00
27334;BME280;14817;57.104;-2.094;2023-03-30T03:01:01;98366.31;;;6.84;100.00
27334;BME280;14817;57.104;-2.094;2023-03-30T03:03:43;98368.06;;;6.77;100.00
27334;BME280;14817;57.104;-2.094;2023-03-30T03:06:13;98364.38;;;6.78;100.00
27334;BME280;14817;57.104;-2.094;2023-03-30T03:08:45;98361.88;;;6.76;100.00
27334;BME280;14817;57.104;-2.094;2023-03-30T03:11:27;98354.94;;;6.75;100.00
27334;BME280;14817;57.104;-2.094;2023-03-30T03:13:54;98348.25;;;6.79;100.00
27334;BME280;14817;57.104;-2.094;2023-03-30T03:16:22;98347.22;;;6.80;100.00
27334;BME280;14817;57.104;-2.094;2023-03-30T03:19:15;98353.00;;;6.84;100.00
27334;BME280;14817;57.104;-2.094;2023-03-30T03:21:46;98354.09;;;6.74;100.00
27334;BME280;14817;57.104;-2.094;2023-03-30T03:24:13;98356.13;;;6.72;100.00
27334;BME280;14817;57.104;-2.094;2023-03-30T03:27:01;98350.16;;;6.70;100.00
27334;BME280;14817;57.104;-2.094;2023-03-30T03:29:33;98350.97;;;6.71;100.00
27334;BME280;14817;57.104;-2.094;2023-03-30T03:32:01;98352.44;;;6.73;100.00
27334;BME280;14817;57.104;-2.094;2023-03-30T03:34:35;98355.09;;;6.73;100.00
27334;BME280;14817;57.104;-2.094;2023-03-30T03:37:03;98359.13;;;6.69;100.00
27334;BME280;14817;57.104;-2.094;2023-03-30T03:39:32;98365.56;;;6.75;100.00
27334;BME280;14817;57.104;-2.094;2023-03-30T03:42:06;98360.22;;;6.60;100.00
27334;BME280;14817;57.104;-2.094;2023-03-30T03:44:38;98370.09;;;6.51;100.00
27334;BME280;14817;57.104;-2.094;2023-03-30T03:47:08;98370.00;;;6.45;100.00
27334;BME280;14817;57.104;-2.094;2023-03-30T03:49:34;98368.81;;;6.47;100.00
27334;BME280;14817;57.104;-2.094;2023-03-30T03:52:01;98371.31;;;6.49;100.00
27334;BME280;14817;57.104;-2.094;2023-03-30T03:54:29;98380.28;;;6.48;100.00
27334;BME280;14817;57.104;-2.094;2023-03-30T03:56:55;98374.59;;;6.51;100.00
27334;BME280;14817;57.104;-2.094;2023-03-30T03:59:22;98376.69;;;6.41;100.00
27334;BME280;14817;57.104;-2.094;2023-03-30T04:01:49;98375.56;;;6.35;100.00
27334;BME280;14817;57.104;-2.094;2023-03-30T04:04:16;98374.03;;;6.41;100.00
27334;BME280;14817;57.104;-2.094;2023-03-30T04:06:43;98383.25;;;6.30;100.00
27334;BME280;14817;57.104;-2.094;2023-03-30T04:09:10;98382.44;;;6.29;100.00
27334;BME280;14817;57.104;-2.094;2023-03-30T04:11:57;98383.47;;;6.20;100.00
27334;BME280;14817;57.104;-2.094;2023-03-30T04:14:56;98382.75;;;6.26;100.00
27334;BME280;14817;57.104;-2.094;2023-03-30T04:17:41;98389.38;;;6.30;100.00
27334;BME280;14817;57.104;-2.094;2023-03-30T04:20:31;98379.56;;;6.31;100.00
27334;BME280;14817;57.104;-2.094;2023-03-30T04:23:08;98380.88;;;6.12;100.00
27334;BME280;14817;57.104;-2.094;2023-03-30T04:26:03;98380.41;;;6.08;100.00
27334;BME280;14817;57.104;-2.094;2023-03-30T04:28:45;98371.41;;;6.09;100.00
27334;BME280;14817;57.104;-2.094;2023-03-30T04:31:15;98369.00;;;6.00;100.00
27334;BME280;14817;57.104;-2.094;2023-03-30T04:34:00;98369.91;;;5.84;100.00
27334;BME280;14817;57.104;-2.094;2023-03-30T04:36:38;98365.72;;;5.89;100.00
27334;BME280;14817;57.104;-2.094;2023-03-30T04:39:27;98369.72;;;5.85;100.00
27334;BME280;14817;57.104;-2.094;2023-03-30T04:42:15;98371.78;;;5.75;100.00
27334;BME280;14817;57.104;-2.094;2023-03-30T04:45:05;98371.00;;;5.66;100.00
27334;BME280;14817;57.104;-2.094;2023-03-30T04:47:46;98377.13;;;5.67;100.00
27334;BME280;14817;57.104;-2.094;2023-03-30T04:50:22;98378.31;;;5.64;100.00
27334;BME280;14817;57.104;-2.094;2023-03-30T04:53:07;98379.50;;;5.62;100.00
27334;BME280;14817;57.104;-2.094;2023-03-30T04:56:09;98384.97;;;5.60;100.00
27334;BME280;14817;57.104;-2.094;2023-03-30T04:58:44;98377.28;;;5.65;100.00
27334;BME280;14817;57.104;-2.094;2023-03-30T05:01:41;98379.94;;;5.65;100.00
27334;BME280;14817;57.104;-2.094;2023-03-30T05:04:27;98380.66;;;5.59;100.00
27334;BME280;14817;57.104;-2.094;2023-03-30T05:07:12;98379.88;;;5.50;100.00
27334;BME280;14817;57.104;-2.094;2023-03-30T05:09:47;98381.22;;;5.46;100.00
27334;BME280;14817;57.104;-2.094;2023-03-30T05:12:40;98381.81;;;5.57;100.00
27334;BME280;14817;57.104;-2.094;2023-03-30T05:15:52;98388.31;;;5.54;100.00
27334;BME280;14817;57.104;-2.094;2023-03-30T05:18:37;98390.78;;;5.56;100.00
27334;BME280;14817;57.104;-2.094;2023-03-30T05:21:07;98393.72;;;5.69;100.00
27334;BME280;14817;57.104;-2.094;2023-03-30T05:24:03;98389.38;;;5.76;100.00
27334;BME280;14817;57.104;-2.094;2023-03-30T05:26:33;98393.50;;;5.79;100.00
27334;BME280;14817;57.104;-2.094;2023-03-30T05:29:03;98390.16;;;5.85;100.00
27334;BME280;14817;57.104;-2.094;2023-03-30T05:31:37;98388.31;;;5.85;100.00
27334;BME280;14817;57.104;-2.094;2023-03-30T05:34:22;98394.16;;;5.81;100.00
27334;BME280;14817;57.104;-2.094;2023-03-30T05:37:08;98401.94;;;5.82;100.00
27334;BME280;14817;57.104;-2.094;2023-03-30T05:39:59;98394.97;;;5.81;100.00
27334;BME280;14817;57.104;-2.094;2023-03-30T05:42:41;98404.47;;;5.76;100.00
27334;BME280;14817;57.104;-2.094;2023-03-30T05:45:15;98407.13;;;5.76;100.00
27334;BME280;14817;57.104;-2.094;2023-03-30T05:48:00;98403.00;;;5.73;100.00
27334;BME280;14817;57.104;-2.094;2023-03-30T05:50:41;98407.16;;;5.67;100.00
27334;BME280;14817;57.104;-2.094;2023-03-30T05:53:18;98401.03;;;5.67;100.00
27334;BME280;14817;57.104;-2.094;2023-03-30T05:55:59;98403.34;;;5.70;100.00
27334;BME280;14817;57.104;-2.094;2023-03-30T05:58:50;98402.69;;;5.68;100.00
27334;BME280;14817;57.104;-2.094;2023-03-30T06:01:36;98408.34;;;5.65;100.00
27334;BME280;14817;57.104;-2.094;2023-03-30T06:04:03;98413.00;;;5.63;100.00
27334;BME280;14817;57.104;-2.094;2023-03-30T06:06:31;98413.63;;;5.73;100.00
27334;BME280;14817;57.104;-2.094;2023-03-30T06:08:58;98417.75;;;5.76;100.00
27334;BME280;14817;57.104;-2.094;2023-03-30T06:11:25;98417.94;;;5.74;100.00
27334;BME280;14817;57.104;-2.094;2023-03-30T06:14:06;98417.28;;;5.72;100.00
27334;BME280;14817;57.104;-2.094;2023-03-30T06:16:34;98422.59;;;5.72;100.00
27334;BME280;14817;57.104;-2.094;2023-03-30T06:19:01;98419.44;;;5.68;100.00
27334;BME280;14817;57.104;-2.094;2023-03-30T06:21:28;98414.75;;;5.79;100.00
27334;BME280;14817;57.104;-2.094;2023-03-30T06:24:13;98422.31;;;5.90;100.00
27334;BME280;14817;57.104;-2.094;2023-03-30T06:26:41;98420.41;;;6.15;100.00
27334;BME280;14817;57.104;-2.094;2023-03-30T06:29:08;98415.97;;;6.30;100.00
27334;BME280;14817;57.104;-2.094;2023-03-30T06:31:36;98419.22;;;6.41;100.00
27334;BME280;14817;57.104;-2.094;2023-03-30T06:34:22;98420.13;;;6.71;100.00
27334;BME280;14817;57.104;-2.094;2023-03-30T06:36:49;98417.81;;;7.06;100.00
27334;BME280;14817;57.104;-2.094;2023-03-30T06:39:18;98424.50;;;7.02;100.00
27334;BME280;14817;57.104;-2.094;2023-03-30T06:41:45;98432.25;;;7.56;100.00
27334;BME280;14817;57.104;-2.094;2023-03-30T06:44:30;98418.50;;;8.25;100.00
27334;BME280;14817;57.104;-2.094;2023-03-30T06:47:02;98423.31;;;8.73;100.00
27334;BME280;14817;57.104;-2.094;2023-03-30T06:49:31;98426.47;;;9.11;100.00
27334;BME280;14817;57.104;-2.094;2023-03-30T06:52:17;98422.19;;;9.17;100.00
27334;BME280;14817;57.104;-2.094;2023-03-30T06:54:44;98426.00;;;9.71;100.00
27334;BME280;14817;57.104;-2.094;2023-03-30T06:57:11;98423.84;;;10.01;100.00
27334;BME280;14817;57.104;-2.094;2023-03-30T06:59:38;98424.94;;;10.20;100.00
27334;BME280;14817;57.104;-2.094;2023-03-30T07:02:34;98427.13;;;10.71;100.00
27334;BME280;14817;57.104;-2.094;2023-03-30T07:05:31;98421.34;;;10.61;100.00
27334;BME280;14817;57.104;-2.094;2023-03-30T07:08:07;98425.47;;;11.10;100.00
27334;BME280;14817;57.104;-2.094;2023-03-30T07:10:36;98429.59;;;10.93;100.00
27334;BME280;14817;57.104;-2.094;2023-03-30T07:13:06;98428.78;;;10.99;100.00
27334;BME280;14817;57.104;-2.094;2023-03-30T07:15:34;98433.53;;;11.82;100.00
27334;BME280;14817;57.104;-2.094;2023-03-30T07:18:02;98431.75;;;11.62;100.00
27334;BME280;14817;57.104;-2.094;2023-03-30T07:20:30;98442.00;;;10.19;100.00
27334;BME280;14817;57.104;-2.094;2023-03-30T07:23:23;98439.25;;;9.92;100.00
27334;BME280;14817;57.104;-2.094;2023-03-30T07:25:51;98446.03;;;10.50;100.00
27334;BME280;14817;57.104;-2.094;2023-03-30T07:28:23;98446.44;;;10.60;100.00
27334;BME280;14817;57.104;-2.094;2023-03-30T07:30:51;98466.19;;;9.91;100.00
27334;BME280;14817;57.104;-2.094;2023-03-30T07:33:20;98462.34;;;10.95;100.00
27334;BME280;14817;57.104;-2.094;2023-03-30T07:35:47;98459.63;;;10.55;100.00
27334;BME280;14817;57.104;-2.094;2023-03-30T07:38:20;98469.91;;;9.96;100.00
27334;BME280;14817;57.104;-2.094;2023-03-30T07:40:50;98464.84;;;10.21;100.00
27334;BME280;14817;57.104;-2.094;2023-03-30T07:43:19;98461.31;;;10.82;100.00
27334;BME280;14817;57.104;-2.094;2023-03-30T07:45:47;98468.28;;;10.57;100.00
27334;BME280;14817;57.104;-2.094;2023-03-30T07:48:21;98467.47;;;10.83;100.00
27334;BME280;14817;57.104;-2.094;2023-03-30T07:50:48;98467.47;;;10.83;100.00
27334;BME280;14817;57.104;-2.094;2023-03-30T07:53:16;98468.75;;;11.14;100.00
27334;BME280;14817;57.104;-2.094;2023-03-30T07:55:47;98484.50;;;11.82;100.00
27334;BME280;14817;57.104;-2.094;2023-03-30T07:58:21;98486.94;;;11.97;100.00
27334;BME280;14817;57.104;-2.094;2023-03-30T08:00:48;98474.19;;;12.37;100.00
27334;BME280;14817;57.104;-2.094;2023-03-30T08:03:53;98482.22;;;11.92;100.00
27334;BME280;14817;57.104;-2.094;2023-03-30T08:06:21;98475.31;;;13.43;100.00
27334;BME280;14817;57.104;-2.094;2023-03-30T08:08:52;98473.03;;;13.65;100.00
27334;BME280;14817;57.104;-2.094;2023-03-30T08:11:20;98477.81;;;14.00;100.00
27334;BME280;14817;57.104;-2.094;2023-03-30T08:13:47;98475.91;;;14.56;100.00
27334;BME280;14817;57.104;-2.094;2023-03-30T08:16:14;98492.47;;;15.37;100.00
27334;BME280;14817;57.104;-2.094;2023-03-30T08:18:42;98481.84;;;15.78;100.00
27334;BME280;14817;57.104;-2.094;2023-03-30T08:21:09;98486.38;;;15.65;100.00
27334;BME280;14817;57.104;-2.094;2023-03-30T08:23:36;98492.03;;;15.52;100.00
27334;BME280;14817;57.104;-2.094;2023-03-30T08:26:03;98494.03;;;15.92;100.00
27334;BME280;14817;57.104;-2.094;2023-03-30T08:28:30;98498.63;;;15.80;100.00
27334;BME280;14817;57.104;-2.094;2023-03-30T08:31:07;98498.44;;;15.51;100.00
27334;BME280;14817;57.104;-2.094;2023-03-30T08:33:36;98509.75;;;15.71;100.00
27334;BME280;14817;57.104;-2.094;2023-03-30T08:36:03;98504.59;;;15.82;100.00
27334;BME280;14817;57.104;-2.094;2023-03-30T08:38:30;98506.00;;;15.96;100.00
27334;BME280;14817;57.104;-2.094;2023-03-30T08:40:57;98504.84;;;14.61;100.00
27334;BME280;14817;57.104;-2.094;2023-03-30T08:43:52;98514.91;;;13.98;100.00
27334;BME280;14817;57.104;-2.094;2023-03-30T08:46:22;98516.97;;;13.78;100.00
27334;BME280;14817;57.104;-2.094;2023-03-30T08:48:49;98520.06;;;13.38;100.00
27334;BME280;14817;57.104;-2.094;2023-03-30T08:51:21;98519.34;;;12.54;100.00
27334;BME280;14817;57.104;-2.094;2023-03-30T08:54:04;98519.03;;;12.30;100.00
27334;BME280;14817;57.104;-2.094;2023-03-30T08:59:51;98521.94;;;12.67;100.00
27334;BME280;14817;57.104;-2.094;2023-03-30T09:02:31;98525.13;;;12.57;100.00
27334;BME280;14817;57.104;-2.094;2023-03-30T09:10:22;98536.72;;;12.51;100.00
27334;BME280;14817;57.104;-2.094;2023-03-30T09:12:59;98537.38;;;12.40;100.00
27334;BME280;14817;57.104;-2.094;2023-03-30T09:15:33;98538.53;;;12.12;100.00
27334;BME280;14817;57.104;-2.094;2023-03-30T09:18:34;98543.19;;;12.30;100.00
27334;BME280;14817;57.104;-2.094;2023-03-30T09:21:05;98537.22;;;12.28;100.00
27334;BME280;14817;57.104;-2.094;2023-03-30T09:23:36;98541.38;;;12.62;100.00
27334;BME280;14817;57.104;-2.094;2023-03-30T09:26:41;98548.06;;;12.53;100.00
27334;BME280;14817;57.104;-2.094;2023-03-30T09:29:42;98543.09;;;12.88;100.00
27334;BME280;14817;57.104;-2.094;2023-03-30T09:32:16;98544.91;;;12.95;100.00
27334;BME280;14817;57.104;-2.094;2023-03-30T09:35:02;98538.09;;;13.31;100.00
27334;BME280;14817;57.104;-2.094;2023-03-30T09:37:30;98547.03;;;13.50;100.00
27334;BME280;14817;57.104;-2.094;2023-03-30T09:39:57;98546.81;;;13.51;100.00
27334;BME280;14817;57.104;-2.094;2023-03-30T09:42:50;98538.75;;;13.51;100.00
27334;BME280;14817;57.104;-2.094;2023-03-30T09:45:24;98542.88;;;13.54;100.00
27334;BME280;14817;57.104;-2.094;2023-03-30T09:47:53;98552.59;;;13.30;100.00
27334;BME280;14817;57.104;-2.094;2023-03-30T09:50:23;98546.94;;;13.38;100.00
27334;BME280;14817;57.104;-2.094;2023-03-30T09:52:59;98554.56;;;13.41;100.00
27334;BME280;14817;57.104;-2.094;2023-03-30T09:55:30;98556.84;;;13.05;100.00
27334;BME280;14817;57.104;-2.094;2023-03-30T09:58:13;98551.72;;;13.04;100.00
27334;BME280;14817;57.104;-2.094;2023-03-30T10:00:44;98550.94;;;13.22;100.00
27334;BME280;14817;57.104;-2.094;2023-03-30T10:03:22;98554.03;;;13.76;100.00
27334;BME280;14817;57.104;-2.094;2023-03-30T10:06:03;98546.81;;;13.76;100.00
27334;BME280;14817;57.104;-2.094;2023-03-30T10:11:10;98552.06;;;14.45;100.00
27334;BME280;14817;57.104;-2.094;2023-03-30T10:13:40;98555.81;;;14.62;100.00
27334;BME280;14817;57.104;-2.094;2023-03-30T10:16:22;98553.34;;;14.24;100.00
27334;BME280;14817;57.104;-2.094;2023-03-30T10:18:57;98560.34;;;14.25;100.00
27334;BME280;14817;57.104;-2.094;2023-03-30T10:21:30;98568.00;;;14.09;100.00
27334;BME280;14817;57.104;-2.094;2023-03-30T10:24:19;98575.94;;;13.79;100.00
27334;BME280;14817;57.104;-2.094;2023-03-30T10:26:52;98580.25;;;13.62;100.00
27334;BME280;14817;57.104;-2.094;2023-03-30T10:29:22;98584.06;;;13.16;100.00
27334;BME280;14817;57.104;-2.094;2023-03-30T10:32:03;98580.25;;;12.98;100.00
27334;BME280;14817;57.104;-2.094;2023-03-30T10:34:40;98576.66;;;13.11;100.00
27334;BME280;14817;57.104;-2.094;2023-03-30T10:39:57;98585.47;;;13.32;100.00
27334;BME280;14817;57.104;-2.094;2023-03-30T10:42:27;98583.31;;;13.65;100.00
27334;BME280;14817;57.104;-2.094;2023-03-30T10:44:58;98578.72;;;13.73;100.00
27334;BME280;14817;57.104;-2.094;2023-03-30T10:47:43;98584.50;;;13.69;100.00
27334;BME280;14817;57.104;-2.094;2023-03-30T10:50:34;98580.84;;;13.89;100.00
27334;BME280;14817;57.104;-2.094;2023-03-30T10:53:22;98588.31;;;14.05;100.00
27334;BME280;14817;57.104;-2.094;2023-03-30T10:56:02;98592.66;;;14.06;100.00
27334;BME280;14817;57.104;-2.094;2023-03-30T10:58:43;98593.16;;;13.97;100.00
27334;BME280;14817;57.104;-2.094;2023-03-30T11:04:00;98587.72;;;14.96;100.00
27334;BME280;14817;57.104;-2.094;2023-03-30T11:06:47;98593.94;;;15.50;100.00
27334;BME280;14817;57.104;-2.094;2023-03-30T11:09:20;98591.72;;;15.59;100.00
27334;BME280;14817;57.104;-2.094;2023-03-30T11:12:14;98589.72;;;15.54;100.00
27334;BME280;14817;57.104;-2.094;2023-03-30T11:14:49;98585.78;;;15.80;100.00
27334;BME280;14817;57.104;-2.094;2023-03-30T11:17:29;98585.34;;;15.95;100.00
27334;BME280;14817;57.104;-2.094;2023-03-30T11:20:02;98589.41;;;16.21;100.00
27334;BME280;14817;57.104;-2.094;2023-03-30T11:22:45;98586.59;;;16.04;100.00
27334;BME280;14817;57.104;-2.094;2023-03-30T11:25:20;98598.69;;;15.66;100.00
27334;BME280;14817;57.104;-2.094;2023-03-30T11:30:55;98599.06;;;16.81;100.00
27334;BME280;14817;57.104;-2.094;2023-03-30T11:33:28;98595.41;;;16.87;100.00
27334;BME280;14817;57.104;-2.094;2023-03-30T11:36:22;98597.63;;;16.90;100.00
27334;BME280;14817;57.104;-2.094;2023-03-30T11:39:01;98591.25;;;16.97;100.00
27334;BME280;14817;57.104;-2.094;2023-03-30T11:41:36;98590.34;;;16.91;100.00
27334;BME280;14817;57.104;-2.094;2023-03-30T11:44:04;98598.50;;;16.67;100.00
27334;BME280;14817;57.104;-2.094;2023-03-30T11:46:40;98586.97;;;16.20;100.00
27334;BME280;14817;57.104;-2.094;2023-03-30T11:57:09;98603.97;;;14.34;100.00
27334;BME280;14817;57.104;-2.094;2023-03-30T12:00:16;98607.34;;;14.11;100.00
27334;BME280;14817;57.104;-2.094;2023-03-30T12:02:53;98605.94;;;14.01;100.00
27334;BME280;14817;57.104;-2.094;2023-03-30T12:05:34;98608.56;;;14.08;100.00
27334;BME280;14817;57.104;-2.094;2023-03-30T12:11:11;98604.78;;;14.89;100.00
27334;BME280;14817;57.104;-2.094;2023-03-30T12:13:41;98606.44;;;14.90;100.00
27334;BME280;14817;57.104;-2.094;2023-03-30T12:16:22;98606.28;;;15.16;100.00
27334;BME280;14817;57.104;-2.094;2023-03-30T12:18:57;98601.88;;;15.21;100.00
27334;BME280;14817;57.104;-2.094;2023-03-30T12:21:43;98595.56;;;15.51;100.00
27334;BME280;14817;57.104;-2.094;2023-03-30T12:24:24;98604.88;;;15.67;100.00
27334;BME280;14817;57.104;-2.094;2023-03-30T12:26:55;98603.59;;;15.69;100.00
27334;BME280;14817;57.104;-2.094;2023-03-30T12:29:54;98596.72;;;15.85;100.00
27334;BME280;14817;57.104;-2.094;2023-03-30T12:32:33;98599.78;;;15.77;100.00
27334;BME280;14817;57.104;-2.094;2023-03-30T12:35:00;98599.47;;;15.55;100.00
27334;BME280;14817;57.104;-2.094;2023-03-30T12:37:32;98596.59;;;15.38;100.00
27334;BME280;14817;57.104;-2.094;2023-03-30T12:40:14;98610.47;;;15.42;100.00
27334;BME280;14817;57.104;-2.094;2023-03-30T12:43:00;98601.34;;;15.55;100.00
27334;BME280;14817;57.104;-2.094;2023-03-30T12:45:46;98595.38;;;15.64;100.00
27334;BME280;14817;57.104;-2.094;2023-03-30T12:48:27;98592.16;;;15.86;100.00
27334;BME280;14817;57.104;-2.094;2023-03-30T12:51:21;98601.16;;;15.91;100.00
27334;BME280;14817;57.104;-2.094;2023-03-30T12:59:52;98598.19;;;15.16;100.00
27334;BME280;14817;57.104;-2.094;2023-03-30T13:02:55;98597.75;;;14.88;100.00
27334;BME280;14817;57.104;-2.094;2023-03-30T13:05:31;98607.56;;;14.46;100.00
27334;BME280;14817;57.104;-2.094;2023-03-30T13:08:04;98599.78;;;14.19;100.00
27334;BME280;14817;57.104;-2.094;2023-03-30T13:10:37;98604.00;;;13.90;100.00
27334;BME280;14817;57.104;-2.094;2023-03-30T13:13:15;98610.22;;;13.02;100.00
27334;BME280;14817;57.104;-2.094;2023-03-30T13:15:53;98609.44;;;12.88;100.00
27334;BME280;14817;57.104;-2.094;2023-03-30T13:18:30;98606.09;;;12.48;100.00
27334;BME280;14817;57.104;-2.094;2023-03-30T13:21:15;98605.84;;;12.62;100.00
27334;BME280;14817;57.104;-2.094;2023-03-30T13:23:43;98600.69;;;12.99;100.00
27334;BME280;14817;57.104;-2.094;2023-03-30T13:26:25;98590.22;;;13.30;100.00
27334;BME280;14817;57.104;-2.094;2023-03-30T13:29:04;98594.56;;;13.56;100.00
27334;BME280;14817;57.104;-2.094;2023-03-30T13:31:46;98589.06;;;13.94;100.00
27334;BME280;14817;57.104;-2.094;2023-03-30T13:34:30;98576.09;;;14.28;100.00
27334;BME280;14817;57.104;-2.094;2023-03-30T13:39:38;98590.16;;;14.30;100.00
27334;BME280;14817;57.104;-2.094;2023-03-30T13:47:28;98576.97;;;14.59;100.00
27334;BME280;14817;57.104;-2.094;2023-03-30T13:50:24;98582.63;;;14.50;100.00
27334;BME280;14817;57.104;-2.094;2023-03-30T13:52:54;98585.94;;;14.53;100.00
27334;BME280;14817;57.104;-2.094;2023-03-30T13:55:31;98580.72;;;14.39;100.00
27334;BME280;14817;57.104;-2.094;2023-03-30T14:00:56;98584.09;;;13.73;100.00
27334;BME280;14817;57.104;-2.094;2023-03-30T14:03:39;98573.66;;;13.83;100.00
27334;BME280;14817;57.104;-2.094;2023-03-30T14:08:42;98574.31;;;13.53;100.00
27334;BME280;14817;57.104;-2.094;2023-03-30T14:11:14;98572.88;;;13.76;100.00
27334;BME280;14817;57.104;-2.094;2023-03-30T14:13:47;98570.28;;;13.87;100.00
27334;BME280;14817;57.104;-2.094;2023-03-30T14:16:35;98570.66;;;13.91;100.00
27334;BME280;14817;57.104;-2.094;2023-03-30T14:19:21;98572.19;;;13.80;100.00
27334;BME280;14817;57.104;-2.094;2023-03-30T14:21:52;98572.91;;;13.94;100.00
27334;BME280;14817;57.104;-2.094;2023-03-30T14:24:27;98562.00;;;14.07;100.00
27334;BME280;14817;57.104;-2.094;2023-03-30T14:27:00;98573.69;;;14.20;100.00
27334;BME280;14817;57.104;-2.094;2023-03-30T14:29:27;98565.59;;;14.20;100.00
27334;BME280;14817;57.104;-2.094;2023-03-30T14:32:02;98565.38;;;14.21;100.00
27334;BME280;14817;57.104;-2.094;2023-03-30T14:34:35;98562.38;;;14.11;100.00
27334;BME280;14817;57.104;-2.094;2023-03-30T14:37:07;98567.38;;;14.07;100.00
27334;BME280;14817;57.104;-2.094;2023-03-30T14:39:41;98559.91;;;14.09;100.00
27334;BME280;14817;57.104;-2.094;2023-03-30T14:42:23;98567.78;;;14.29;100.00
27334;BME280;14817;57.104;-2.094;2023-03-30T14:44:53;98561.09;;;14.50;100.00
27334;BME280;14817;57.104;-2.094;2023-03-30T14:47:23;98557.44;;;14.63;100.00
27334;BME280;14817;57.104;-2.094;2023-03-30T14:49:54;98562.50;;;14.72;100.00
27334;BME280;14817;57.104;-2.094;2023-03-30T14:52:26;98557.69;;;14.62;100.00
27334;BME280;14817;57.104;-2.094;2023-03-30T14:54:55;98552.56;;;14.54;100.00
27334;BME280;14817;57.104;-2.094;2023-03-30T14:57:36;98546.00;;;14.49;100.00
27334;BME280;14817;57.104;-2.094;2023-03-30T15:00:12;98549.66;;;14.37;100.00
27334;BME280;14817;57.104;-2.094;2023-03-30T15:02:45;98551.47;;;14.43;100.00